createdAt,value
2024-01-24T00:00:41.210Z,42.08
2024-01-24T00:03:43.531Z,51.65
2024-01-24T00:06:46.020Z,51.13
2024-01-24T00:09:48.193Z,46.38
2024-01-24T00:12:50.603Z,45.30
2024-01-24T00:15:53.326Z,53.20
2024-01-24T00:18:55.774Z,51.65
2024-01-24T00:21:58.192Z,46.25
2024-01-24T00:25:00.588Z,44.88
2024-01-24T00:28:03.843Z,48.28
2024-01-24T00:31:06.339Z,43.97
2024-01-24T00:34:09.305Z,52.58
2024-01-24T00:37:11.768Z,49.78
2024-01-24T00:40:14.096Z,42.83
2024-01-24T00:43:16.455Z,45.08
2024-01-24T00:46:18.815Z,44.78
2024-01-24T00:49:21.272Z,42.67
2024-01-24T00:52:23.605Z,45.78
2024-01-24T00:55:27.793Z,46.97
2024-01-24T00:58:30.231Z,40.05
2024-01-24T01:01:32.735Z,44.30
2024-01-24T01:04:35.274Z,41.70
2024-01-24T01:07:37.541Z,40.55
2024-01-24T01:10:39.701Z,40.58
2024-01-24T01:13:41.778Z,39.03
2024-01-24T01:16:44.166Z,40.35
2024-01-24T01:19:46.397Z,39.63
2024-01-24T01:22:49.128Z,39.67
2024-01-24T01:25:51.402Z,39.53
2024-01-24T01:28:53.464Z,39.65
2024-01-24T01:31:55.790Z,39.47
2024-01-24T01:34:58.248Z,43.45
2024-01-24T01:38:00.639Z,39.85
2024-01-24T01:41:02.763Z,38.92
2024-01-24T01:44:05.195Z,44.42
2024-01-24T01:47:09.417Z,46.65
2024-01-24T01:50:15.222Z,88.68
2024-01-24T01:53:17.603Z,95.55
2024-01-24T01:56:21.358Z,92.88
2024-01-24T01:59:23.836Z,90.07
2024-01-24T02:02:25.973Z,92.25
2024-01-24T02:05:28.094Z,102.53
2024-01-24T02:08:32.895Z,92.00
2024-01-24T02:11:35.185Z,95.75
2024-01-24T02:14:37.535Z,93.35
2024-01-24T02:17:40.008Z,89.88
2024-01-24T02:20:43.009Z,93.50
2024-01-24T02:23:45.880Z,85.72
2024-01-24T02:26:48.275Z,93.63
2024-01-24T02:29:50.418Z,85.68
2024-01-24T02:32:52.708Z,80.80
2024-01-24T02:35:54.843Z,77.43
2024-01-24T02:38:58.569Z,71.65
2024-01-24T02:42:00.987Z,63.97
2024-01-24T02:45:03.366Z,64.32
2024-01-24T02:48:06.163Z,67.93
2024-01-24T02:51:08.575Z,59.47
2024-01-24T02:54:10.901Z,62.33
2024-01-24T02:57:13.056Z,61.65
2024-01-24T03:00:15.939Z,60.40
2024-01-24T03:03:18.338Z,57.67
2024-01-24T03:06:20.782Z,56.63
2024-01-24T03:09:23.522Z,61.72
2024-01-24T03:12:25.645Z,59.58
2024-01-24T03:15:27.881Z,64.15
2024-01-24T03:18:30.296Z,57.17
2024-01-24T03:21:32.674Z,58.38
2024-01-24T03:24:34.779Z,65.05
2024-01-24T03:27:38.994Z,61.50
2024-01-24T03:30:41.436Z,61.13
2024-01-24T03:33:43.894Z,62.05
2024-01-24T03:36:46.213Z,64.88
2024-01-24T03:39:48.348Z,62.75
2024-01-24T03:42:51.446Z,61.45
2024-01-24T03:45:53.651Z,61.08
2024-01-24T03:48:56.201Z,60.95
2024-01-24T03:51:58.736Z,68.30
2024-01-24T03:55:01.068Z,66.60
2024-01-24T03:58:03.649Z,65.30
2024-01-24T04:01:06.869Z,64.85
2024-01-24T04:04:09.958Z,66.90
2024-01-24T04:07:12.509Z,60.35
2024-01-24T04:10:15.043Z,63.90
2024-01-24T04:13:17.326Z,66.15
2024-01-24T04:16:19.384Z,65.15
2024-01-24T04:19:21.921Z,67.65
2024-01-24T04:22:24.394Z,64.93
2024-01-24T04:25:26.769Z,71.20
2024-01-24T04:28:29.104Z,61.08
2024-01-24T04:31:31.563Z,60.53
2024-01-24T04:34:33.984Z,59.10
2024-01-24T04:37:36.359Z,61.33
2024-01-24T04:40:38.445Z,58.80
2024-01-24T04:43:40.844Z,55.00
2024-01-24T04:46:42.959Z,57.53
2024-01-24T04:49:46.265Z,85.97
2024-01-24T04:52:49.199Z,59.75
2024-01-24T04:55:51.555Z,60.03
2024-01-24T04:58:53.912Z,61.92
2024-01-24T05:01:56.057Z,54.75
2024-01-24T05:04:58.332Z,53.88
2024-01-24T05:08:00.447Z,58.47
2024-01-24T05:11:03.039Z,61.53
2024-01-24T05:14:05.335Z,58.67
2024-01-24T05:17:07.500Z,60.85
2024-01-24T05:20:12.192Z,56.67
2024-01-24T05:23:14.705Z,65.88
2024-01-24T05:26:16.729Z,64.30
2024-01-24T05:29:19.216Z,56.03
2024-01-24T05:32:21.572Z,56.00
2024-01-24T05:35:23.886Z,58.25
2024-01-24T05:38:26.072Z,57.65
2024-01-24T05:41:28.246Z,53.50
2024-01-24T05:44:30.266Z,53.05
2024-01-24T05:47:33.182Z,57.40
2024-01-24T05:50:35.570Z,59.53
2024-01-24T05:53:37.672Z,55.05
2024-01-24T05:56:39.726Z,59.38
2024-01-24T05:59:41.838Z,59.72
2024-01-24T06:02:44.741Z,69.78
2024-01-24T06:05:46.970Z,63.60
2024-01-24T06:08:49.288Z,57.50
2024-01-24T06:11:51.388Z,53.70
2024-01-24T06:14:56.400Z,57.22
2024-01-24T06:17:58.750Z,65.68
2024-01-24T06:21:00.940Z,58.03
2024-01-24T06:24:03.137Z,55.88
2024-01-24T06:27:05.564Z,53.75
2024-01-24T06:30:19.213Z,53.88
2024-01-24T06:33:25.750Z,49.80
2024-01-24T06:36:29.438Z,49.53
2024-01-24T06:39:31.701Z,49.38
2024-01-24T06:42:34.133Z,50.15
2024-01-24T06:45:36.516Z,50.53
2024-01-24T06:48:38.649Z,45.08
2024-01-24T06:51:41.193Z,48.53
2024-01-24T06:54:43.568Z,44.53
2024-01-24T06:57:45.743Z,43.53
2024-01-24T07:00:47.975Z,44.85
2024-01-24T07:03:50.371Z,54.30
2024-01-24T07:06:52.481Z,45.60
2024-01-24T07:09:54.656Z,43.33
2024-01-24T07:12:58.633Z,40.25
2024-01-24T07:16:05.920Z,41.13
2024-01-24T07:19:08.577Z,37.78
2024-01-24T07:22:11.084Z,41.78
2024-01-24T07:25:13.583Z,42.42
2024-01-24T07:28:16.002Z,42.50
2024-01-24T07:31:18.757Z,42.42
2024-01-24T07:34:21.047Z,42.15
2024-01-24T07:37:23.422Z,38.42
2024-01-24T07:40:28.436Z,37.85
2024-01-24T07:43:31.095Z,35.40
2024-01-24T07:46:33.889Z,35.45
2024-01-24T07:49:38.606Z,41.80
2024-01-24T07:52:43.140Z,36.67
2024-01-24T07:55:53.846Z,35.45
2024-01-24T07:59:02.108Z,38.70
2024-01-24T08:02:05.047Z,37.58
2024-01-24T08:05:07.825Z,34.90
2024-01-24T08:08:10.172Z,34.88
2024-01-24T08:11:12.715Z,35.60
2024-01-24T08:14:14.853Z,33.92
2024-01-24T08:17:17.126Z,33.83
2024-01-24T08:20:21.337Z,31.02
2024-01-24T08:23:28.854Z,27.05
2024-01-24T08:26:36.645Z,27.95
2024-01-24T08:29:38.693Z,28.58
2024-01-24T08:32:43.365Z,24.83
2024-01-24T08:35:45.599Z,24.30
2024-01-24T08:38:47.909Z,27.38
2024-01-24T08:41:50.049Z,24.65
2024-01-24T08:44:52.513Z,24.67
2024-01-24T08:47:54.747Z,26.95
2024-01-24T08:50:56.917Z,27.50
2024-01-24T08:54:00.620Z,27.95
2024-01-24T08:57:03.346Z,26.58
2024-01-24T09:00:08.999Z,25.30
2024-01-24T09:03:12.382Z,26.33
2024-01-24T09:06:14.902Z,29.00
2024-01-24T09:09:17.477Z,23.75
2024-01-24T09:12:20.121Z,25.58
2024-01-24T09:15:23.939Z,25.45
2024-01-24T09:18:26.459Z,23.00
2024-01-24T09:21:28.975Z,27.48
2024-01-24T09:24:31.343Z,25.60
2024-01-24T09:27:33.780Z,25.70
2024-01-24T09:30:36.267Z,24.20
2024-01-24T09:33:40.186Z,24.15
2024-01-24T09:36:42.756Z,20.33
2024-01-24T09:39:44.944Z,21.83
2024-01-24T09:42:47.787Z,17.80
2024-01-24T09:45:50.607Z,22.30
2024-01-24T09:48:52.931Z,20.33
2024-01-24T09:51:55.814Z,19.02
2024-01-24T09:55:01.727Z,14.70
2024-01-24T09:58:05.849Z,20.00
2024-01-24T10:01:13.452Z,14.38
2024-01-24T10:04:16.603Z,16.27
2024-01-24T10:07:20.341Z,14.38
2024-01-24T10:10:22.849Z,13.57
2024-01-24T10:13:28.136Z,13.88
2024-01-24T10:16:30.680Z,14.73
2024-01-24T10:19:33.411Z,15.90
2024-01-24T10:22:35.969Z,15.32
2024-01-24T10:25:42.649Z,15.05
2024-01-24T10:28:45.984Z,15.05
2024-01-24T10:31:48.906Z,12.73
2024-01-24T10:34:51.759Z,12.55
2024-01-24T10:37:54.523Z,11.98
2024-01-24T10:41:01.067Z,14.02
2024-01-24T10:44:08.337Z,14.07
2024-01-24T10:47:11.201Z,11.65
2024-01-24T10:50:15.082Z,11.07
2024-01-24T10:53:19.881Z,11.35
2024-01-24T10:56:24.901Z,13.80
2024-01-24T10:59:29.748Z,13.68
2024-01-24T11:02:35.655Z,13.90
2024-01-24T11:05:44.608Z,11.68
2024-01-24T11:09:21.809Z,12.60
2024-01-24T11:12:24.387Z,12.25
2024-01-24T11:15:30.065Z,12.27
2024-01-24T11:18:32.717Z,11.95
2024-01-24T11:21:35.873Z,11.35
2024-01-24T11:24:41.831Z,11.10
2024-01-24T11:27:45.722Z,15.18
2024-01-24T11:30:48.178Z,12.68
2024-01-24T11:34:10.839Z,12.10
2024-01-24T11:37:16.964Z,10.88
2024-01-24T11:40:19.454Z,11.65
2024-01-24T11:43:25.660Z,14.63
2024-01-24T11:46:28.712Z,12.50
2024-01-24T11:49:31.395Z,11.48
2024-01-24T11:52:33.680Z,12.75
2024-01-24T11:55:36.212Z,10.88
2024-01-24T11:58:38.607Z,10.95
2024-01-24T12:01:41.030Z,10.73
2024-01-24T12:04:43.549Z,12.52
2024-01-24T12:07:45.822Z,13.93
2024-01-24T12:10:48.185Z,10.73
2024-01-24T12:13:51.224Z,11.30
2024-01-24T12:16:53.518Z,10.52
2024-01-24T12:19:59.490Z,10.10
2024-01-24T12:23:04.475Z,12.13
2024-01-24T12:26:07.151Z,11.48
2024-01-24T12:29:09.956Z,10.75
2024-01-24T12:32:12.427Z,10.57
2024-01-24T12:35:16.985Z,13.50
2024-01-24T12:38:19.641Z,17.50
2024-01-24T12:41:23.174Z,11.27
2024-01-24T12:44:25.639Z,11.18
2024-01-24T12:47:29.418Z,11.07
2024-01-24T12:50:31.809Z,12.32
2024-01-24T12:53:34.578Z,12.65
2024-01-24T12:56:36.834Z,12.63
2024-01-24T12:59:39.030Z,11.68
2024-01-24T13:02:41.698Z,15.65
2024-01-24T13:05:47.258Z,15.60
2024-01-24T13:08:53.069Z,15.57
2024-01-24T13:11:55.162Z,11.35
2024-01-24T13:15:00.541Z,16.52
2024-01-24T13:18:03.125Z,13.15
2024-01-24T13:21:05.620Z,22.98
2024-01-24T13:24:08.665Z,13.57
2024-01-24T13:27:11.132Z,18.27
2024-01-24T13:30:13.797Z,16.05
2024-01-24T13:33:17.939Z,16.23
2024-01-24T13:36:20.683Z,16.02
2024-01-24T13:39:22.873Z,13.25
2024-01-24T13:42:25.382Z,18.55
2024-01-24T13:45:27.784Z,41.97
2024-01-24T13:48:30.455Z,44.72
2024-01-24T13:51:42.552Z,70.32
2024-01-24T13:54:46.793Z,32.33
2024-01-24T13:57:49.762Z,29.48
2024-01-24T14:00:52.380Z,30.83
2024-01-24T14:03:54.659Z,22.05
2024-01-24T14:06:57.204Z,25.80
2024-01-24T14:09:59.700Z,29.42
2024-01-24T14:13:02.501Z,13.23
2024-01-24T14:16:06.810Z,15.45
2024-01-24T14:19:09.271Z,18.63
2024-01-24T14:22:11.872Z,19.50
2024-01-24T14:25:14.267Z,15.25
2024-01-24T14:28:19.798Z,14.65
2024-01-24T14:31:22.008Z,15.73
2024-01-24T14:34:24.290Z,20.42
2024-01-24T14:37:30.037Z,20.92
2024-01-24T14:40:33.452Z,17.98
2024-01-24T14:43:35.642Z,15.35
2024-01-24T14:46:37.717Z,17.52
2024-01-24T14:49:40.045Z,18.55
2024-01-24T14:52:42.279Z,18.70
2024-01-24T14:55:44.417Z,18.95
2024-01-24T14:58:46.718Z,19.75
2024-01-24T15:01:49.239Z,14.73
2024-01-24T15:04:51.992Z,16.27
2024-01-24T15:07:54.394Z,15.32
2024-01-24T15:10:56.592Z,14.93
2024-01-24T15:13:58.835Z,16.95
2024-01-24T15:17:01.196Z,14.90
2024-01-24T15:20:04.921Z,16.70
2024-01-24T15:23:07.833Z,16.33
2024-01-24T15:26:11.129Z,19.40
2024-01-24T15:29:13.351Z,19.70
2024-01-24T15:32:15.753Z,15.95
2024-01-24T15:35:18.324Z,20.92
2024-01-24T15:38:20.859Z,16.90
2024-01-24T15:41:23.347Z,15.50
2024-01-24T15:44:25.794Z,18.38
2024-01-24T15:47:28.751Z,16.63
2024-01-24T15:50:30.884Z,21.35
2024-01-24T15:53:33.257Z,16.85
2024-01-24T15:56:35.724Z,19.63
2024-01-24T15:59:38.260Z,16.70
2024-01-24T16:02:41.870Z,17.38
2024-01-24T16:05:49.946Z,23.05
2024-01-24T16:08:53.784Z,26.20
2024-01-24T16:11:56.134Z,22.88
2024-01-24T16:14:58.914Z,23.55
2024-01-24T16:18:01.583Z,52.17
2024-01-24T16:21:05.490Z,35.50
2024-01-24T16:24:07.721Z,25.48
2024-01-24T16:27:10.047Z,91.65
2024-01-24T16:30:12.276Z,34.15
2024-01-24T16:33:14.417Z,65.25
2024-01-24T16:36:16.518Z,51.72
2024-01-24T16:39:20.083Z,33.22
2024-01-24T16:42:22.302Z,22.45
2024-01-24T16:45:24.976Z,33.80
2024-01-24T16:48:27.534Z,28.13
2024-01-24T16:51:29.774Z,19.92
2024-01-24T16:54:32.216Z,27.48
2024-01-24T16:57:35.072Z,30.80
2024-01-24T17:00:37.640Z,20.92
2024-01-24T17:03:40.400Z,28.48
2024-01-24T17:06:45.813Z,28.52
2024-01-24T17:09:50.380Z,25.30
2024-01-24T17:12:53.008Z,27.73
2024-01-24T17:15:55.355Z,31.42
2024-01-24T17:18:57.750Z,34.72
2024-01-24T17:22:01.238Z,35.13
2024-01-24T17:25:04.315Z,32.30
2024-01-24T17:28:07.379Z,31.63
2024-01-24T17:31:09.610Z,34.42
2024-01-24T17:34:12.283Z,32.30
2024-01-24T17:37:14.903Z,28.88
2024-01-24T17:40:17.599Z,44.53
2024-01-24T17:43:20.342Z,30.27
2024-01-24T17:46:22.745Z,36.17
2024-01-24T17:49:25.187Z,30.02
2024-01-24T17:52:27.621Z,40.83
2024-01-24T17:55:29.785Z,32.67
2024-01-24T17:58:34.535Z,34.33
2024-01-24T18:01:39.597Z,33.22
2024-01-24T18:04:42.662Z,28.80
2024-01-24T18:07:45.363Z,33.42
2024-01-24T18:10:48.090Z,32.53
2024-01-24T18:13:51.001Z,33.63
2024-01-24T18:16:53.927Z,33.65
2024-01-24T18:19:56.817Z,32.80
2024-01-24T18:23:03.192Z,32.60
2024-01-24T18:26:05.902Z,28.42
2024-01-24T18:29:09.061Z,30.58
2024-01-24T18:32:13.681Z,45.40
2024-01-24T18:35:17.426Z,33.50
2024-01-24T18:38:20.576Z,48.80
2024-01-24T18:41:25.178Z,44.85
2024-01-24T18:44:28.375Z,39.85
2024-01-24T18:47:32.417Z,46.35
2024-01-24T18:50:35.648Z,37.97
2024-01-24T18:53:39.086Z,35.35
2024-01-24T18:56:43.289Z,36.47
2024-01-24T18:59:46.254Z,36.45
2024-01-24T19:02:49.190Z,36.60
2024-01-24T19:05:52.231Z,34.15
2024-01-24T19:08:56.683Z,36.78
2024-01-24T19:12:00.676Z,40.28
2024-01-24T19:15:04.502Z,37.78
2024-01-24T19:18:14.598Z,38.33
2024-01-24T19:21:20.705Z,58.28
2024-01-24T19:24:23.969Z,56.13
2024-01-24T19:27:26.877Z,56.67
2024-01-24T19:30:30.016Z,71.15
2024-01-24T19:33:33.454Z,96.63
2024-01-24T19:36:37.013Z,107.15
2024-01-24T19:39:39.938Z,93.25
2024-01-24T19:42:43.640Z,85.68
2024-01-24T19:45:47.232Z,80.15
2024-01-24T19:48:51.149Z,54.28
2024-01-24T19:51:54.976Z,33.97
2024-01-24T19:54:58.597Z,30.42
2024-01-24T19:58:02.352Z,38.55
2024-01-24T20:01:06.640Z,29.85
2024-01-24T20:04:09.972Z,30.15
2024-01-24T20:07:14.559Z,32.10
2024-01-24T20:10:20.111Z,31.58
2024-01-24T20:13:24.906Z,27.95
2024-01-24T20:16:28.475Z,29.48
2024-01-24T20:19:31.919Z,31.10
2024-01-24T20:22:35.275Z,32.75
2024-01-24T20:25:39.328Z,41.20
2024-01-24T20:28:42.951Z,40.20
2024-01-24T20:31:46.878Z,34.92
2024-01-24T20:34:50.824Z,44.08
2024-01-24T20:37:54.909Z,35.47
2024-01-24T20:40:58.096Z,37.15
2024-01-24T20:44:01.888Z,37.40
2024-01-24T20:47:05.187Z,34.25
2024-01-24T20:50:08.907Z,33.50
2024-01-24T20:53:14.315Z,37.47
2024-01-24T20:56:16.985Z,39.80
2024-01-24T20:59:20.793Z,41.33
2024-01-24T21:02:24.950Z,69.75
2024-01-24T21:05:28.115Z,70.47
2024-01-24T21:08:31.170Z,31.30
2024-01-24T21:11:34.219Z,96.00
2024-01-24T21:14:36.803Z,126.85
2024-01-24T21:17:40.150Z,56.40
2024-01-24T21:20:42.857Z,38.65
2024-01-24T21:23:45.320Z,51.03
2024-01-24T21:26:48.333Z,57.85
2024-01-24T21:29:50.621Z,30.25
2024-01-24T21:32:53.802Z,31.88
2024-01-24T21:35:56.310Z,30.52
2024-01-24T21:38:58.416Z,31.05
2024-01-24T21:42:00.769Z,33.13
2024-01-24T21:45:04.469Z,29.42
2024-01-24T21:48:07.303Z,31.05
2024-01-24T21:51:09.685Z,31.70
2024-01-24T21:54:14.757Z,37.20
2024-01-24T21:57:17.162Z,32.35
2024-01-24T22:00:20.275Z,43.58
2024-01-24T22:03:22.780Z,37.42
2024-01-24T22:06:24.942Z,47.63
2024-01-24T22:09:28.922Z,33.90
2024-01-24T22:12:31.182Z,32.88
2024-01-24T22:15:33.303Z,33.22
2024-01-24T22:18:41.082Z,35.60
2024-01-24T22:21:50.243Z,34.63
2024-01-24T22:24:52.956Z,37.25
2024-01-24T22:27:55.370Z,30.45
2024-01-24T22:30:58.003Z,30.52
2024-01-24T22:34:00.576Z,31.15
2024-01-24T22:37:03.333Z,38.30
2024-01-24T22:40:06.412Z,28.75
2024-01-24T22:43:08.801Z,32.35
2024-01-24T22:46:11.418Z,31.13
2024-01-24T22:49:13.723Z,30.25
2024-01-24T22:52:16.453Z,32.92
2024-01-24T22:55:19.037Z,34.67
2024-01-24T22:58:21.339Z,30.02
2024-01-24T23:01:24.397Z,30.05
2024-01-24T23:04:26.718Z,35.10
2024-01-24T23:07:28.947Z,31.05
2024-01-24T23:10:31.321Z,31.83
2024-01-24T23:13:33.662Z,36.22
2024-01-24T23:16:36.183Z,30.63
2024-01-24T23:19:38.775Z,31.55
2024-01-24T23:22:41.243Z,28.00
2024-01-24T23:25:43.605Z,34.10
2024-01-24T23:28:45.713Z,33.20
2024-01-24T23:31:48.136Z,32.40
2024-01-24T23:34:50.719Z,31.42
2024-01-24T23:37:54.488Z,28.63
2024-01-24T23:40:56.969Z,32.67
2024-01-24T23:43:59.276Z,28.85
2024-01-24T23:47:01.834Z,29.85
2024-01-24T23:50:04.680Z,30.73
2024-01-24T23:53:08.433Z,31.27
2024-01-24T23:56:12.908Z,30.67
2024-01-24T23:59:15.181Z,30.75
